sensor_id;sensor_type;location;lat;lon;timestamp;P1;durP1;ratioP1;P2;durP2;ratioP2
2710;SDS011;20721;47.402;8.550;2023-08-12T00:01:42;9.06;;;9.06;;
2710;SDS011;20721;47.402;8.550;2023-08-12T00:03:42;8.26;;;8.26;;
2710;SDS011;20721;47.402;8.550;2023-08-12T00:05:42;7.49;;;7.49;;
2710;SDS011;20721;47.402;8.550;2023-08-12T00:07:43;7.10;;;7.10;;
2710;SDS011;20721;47.402;8.550;2023-08-12T00:09:42;7.45;;;7.45;;
2710;SDS011;20721;47.402;8.550;2023-08-12T00:11:42;8.38;;;8.38;;
2710;SDS011;20721;47.402;8.550;2023-08-12T00:13:42;8.31;;;8.31;;
2710;SDS011;20721;47.402;8.550;2023-08-12T00:15:42;7.19;;;7.19;;
2710;SDS011;20721;47.402;8.550;2023-08-12T00:17:42;8.14;;;8.14;;
2710;SDS011;20721;47.402;8.550;2023-08-12T00:20:42;7.93;;;7.93;;
2710;SDS011;20721;47.402;8.550;2023-08-12T00:22:42;6.79;;;6.79;;
2710;SDS011;20721;47.402;8.550;2023-08-12T00:27:42;7.76;;;7.76;;
2710;SDS011;20721;47.402;8.550;2023-08-12T00:29:42;7.24;;;7.24;;
2710;SDS011;20721;47.402;8.550;2023-08-12T00:31:42;7.37;;;7.37;;
2710;SDS011;20721;47.402;8.550;2023-08-12T00:33:42;7.56;;;7.56;;
2710;SDS011;20721;47.402;8.550;2023-08-12T00:35:42;8.01;;;8.01;;
2710;SDS011;20721;47.402;8.550;2023-08-12T00:37:42;7.80;;;7.80;;
2710;SDS011;20721;47.402;8.550;2023-08-12T00:39:42;7.16;;;7.16;;
2710;SDS011;20721;47.402;8.550;2023-08-12T00:41:42;7.01;;;7.01;;
2710;SDS011;20721;47.402;8.550;2023-08-12T00:43:42;6.98;;;6.98;;
2710;SDS011;20721;47.402;8.550;2023-08-12T00:45:43;6.86;;;6.86;;
2710;SDS011;20721;47.402;8.550;2023-08-12T00:47:42;7.11;;;7.11;;
2710;SDS011;20721;47.402;8.550;2023-08-12T00:49:42;7.61;;;7.61;;
2710;SDS011;20721;47.402;8.550;2023-08-12T00:51:42;6.87;;;6.87;;
2710;SDS011;20721;47.402;8.550;2023-08-12T00:53:42;6.52;;;6.52;;
2710;SDS011;20721;47.402;8.550;2023-08-12T00:56:43;7.86;;;7.86;;
2710;SDS011;20721;47.402;8.550;2023-08-12T00:58:42;7.82;;;7.82;;
2710;SDS011;20721;47.402;8.550;2023-08-12T01:00:42;7.37;;;7.37;;
2710;SDS011;20721;47.402;8.550;2023-08-12T01:02:43;8.03;;;8.03;;
2710;SDS011;20721;47.402;8.550;2023-08-12T01:04:42;7.73;;;7.73;;
2710;SDS011;20721;47.402;8.550;2023-08-12T01:08:42;7.65;;;7.65;;
2710;SDS011;20721;47.402;8.550;2023-08-12T01:12:03;7.01;;;7.01;;
2710;SDS011;20721;47.402;8.550;2023-08-12T01:16:44;7.59;;;7.59;;
2710;SDS011;20721;47.402;8.550;2023-08-12T01:18:42;9.39;;;9.39;;
2710;SDS011;20721;47.402;8.550;2023-08-12T01:21:43;9.86;;;9.86;;
2710;SDS011;20721;47.402;8.550;2023-08-12T01:23:43;10.85;;;10.85;;
2710;SDS011;20721;47.402;8.550;2023-08-12T01:26:42;9.89;;;9.89;;
2710;SDS011;20721;47.402;8.550;2023-08-12T01:28:42;8.28;;;8.28;;
2710;SDS011;20721;47.402;8.550;2023-08-12T01:30:46;8.65;;;8.65;;
2710;SDS011;20721;47.402;8.550;2023-08-12T01:32:54;8.46;;;8.46;;
2710;SDS011;20721;47.402;8.550;2023-08-12T01:34:48;7.79;;;7.79;;
2710;SDS011;20721;47.402;8.550;2023-08-12T01:36:46;9.16;;;9.16;;
2710;SDS011;20721;47.402;8.550;2023-08-12T01:38:43;8.99;;;8.99;;
2710;SDS011;20721;47.402;8.550;2023-08-12T01:41:42;8.86;;;8.86;;
2710;SDS011;20721;47.402;8.550;2023-08-12T01:43:42;8.32;;;8.32;;
2710;SDS011;20721;47.402;8.550;2023-08-12T01:45:42;8.34;;;8.34;;
2710;SDS011;20721;47.402;8.550;2023-08-12T01:47:43;8.65;;;8.65;;
2710;SDS011;20721;47.402;8.550;2023-08-12T01:50:42;9.88;;;9.88;;
2710;SDS011;20721;47.402;8.550;2023-08-12T01:52:42;8.31;;;8.31;;
2710;SDS011;20721;47.402;8.550;2023-08-12T01:54:44;7.79;;;7.79;;
2710;SDS011;20721;47.402;8.550;2023-08-12T01:57:42;7.80;;;7.80;;
2710;SDS011;20721;47.402;8.550;2023-08-12T01:59:42;7.88;;;7.88;;
2710;SDS011;20721;47.402;8.550;2023-08-12T02:01:42;8.29;;;8.29;;
2710;SDS011;20721;47.402;8.550;2023-08-12T02:03:42;8.68;;;8.68;;
2710;SDS011;20721;47.402;8.550;2023-08-12T02:05:42;9.23;;;9.23;;
2710;SDS011;20721;47.402;8.550;2023-08-12T02:07:42;9.85;;;9.85;;
2710;SDS011;20721;47.402;8.550;2023-08-12T02:09:42;8.30;;;8.30;;
2710;SDS011;20721;47.402;8.550;2023-08-12T02:11:42;8.01;;;8.01;;
2710;SDS011;20721;47.402;8.550;2023-08-12T02:13:42;8.13;;;8.13;;
2710;SDS011;20721;47.402;8.550;2023-08-12T02:15:43;9.22;;;9.22;;
2710;SDS011;20721;47.402;8.550;2023-08-12T02:17:43;8.10;;;8.10;;
2710;SDS011;20721;47.402;8.550;2023-08-12T02:19:43;7.89;;;7.89;;
2710;SDS011;20721;47.402;8.550;2023-08-12T02:21:42;7.07;;;7.07;;
2710;SDS011;20721;47.402;8.550;2023-08-12T02:23:42;6.93;;;6.93;;
2710;SDS011;20721;47.402;8.550;2023-08-12T02:25:42;7.29;;;7.29;;
2710;SDS011;20721;47.402;8.550;2023-08-12T02:27:42;8.23;;;8.23;;
2710;SDS011;20721;47.402;8.550;2023-08-12T02:29:43;7.88;;;7.88;;
2710;SDS011;20721;47.402;8.550;2023-08-12T02:31:42;7.21;;;7.21;;
2710;SDS011;20721;47.402;8.550;2023-08-12T02:33:42;7.69;;;7.69;;
2710;SDS011;20721;47.402;8.550;2023-08-12T02:38:42;7.43;;;7.43;;
2710;SDS011;20721;47.402;8.550;2023-08-12T02:40:42;8.23;;;8.23;;
2710;SDS011;20721;47.402;8.550;2023-08-12T02:42:42;6.79;;;6.79;;
2710;SDS011;20721;47.402;8.550;2023-08-12T02:44:42;7.18;;;7.18;;
2710;SDS011;20721;47.402;8.550;2023-08-12T02:48:42;7.89;;;7.89;;
2710;SDS011;20721;47.402;8.550;2023-08-12T02:50:42;7.43;;;7.43;;
2710;SDS011;20721;47.402;8.550;2023-08-12T02:52:42;8.14;;;8.14;;
2710;SDS011;20721;47.402;8.550;2023-08-12T02:54:42;8.14;;;8.14;;
2710;SDS011;20721;47.402;8.550;2023-08-12T02:58:42;7.93;;;7.93;;
2710;SDS011;20721;47.402;8.550;2023-08-12T03:00:42;7.81;;;7.81;;
2710;SDS011;20721;47.402;8.550;2023-08-12T03:02:42;8.01;;;8.01;;
2710;SDS011;20721;47.402;8.550;2023-08-12T03:04:42;8.59;;;8.59;;
2710;SDS011;20721;47.402;8.550;2023-08-12T03:06:42;9.27;;;9.27;;
2710;SDS011;20721;47.402;8.550;2023-08-12T03:08:42;8.62;;;8.62;;
2710;SDS011;20721;47.402;8.550;2023-08-12T03:11:42;9.11;;;9.11;;
2710;SDS011;20721;47.402;8.550;2023-08-12T03:13:42;8.56;;;8.56;;
2710;SDS011;20721;47.402;8.550;2023-08-12T03:16:42;8.74;;;8.74;;
2710;SDS011;20721;47.402;8.550;2023-08-12T03:20:43;8.98;;;8.98;;
2710;SDS011;20721;47.402;8.550;2023-08-12T03:22:42;8.97;;;8.97;;
2710;SDS011;20721;47.402;8.550;2023-08-12T03:25:42;8.99;;;8.99;;
2710;SDS011;20721;47.402;8.550;2023-08-12T03:32:43;8.49;;;8.49;;
2710;SDS011;20721;47.402;8.550;2023-08-12T03:35:45;9.11;;;9.11;;
2710;SDS011;20721;47.402;8.550;2023-08-12T03:38:42;8.40;;;8.40;;
2710;SDS011;20721;47.402;8.550;2023-08-12T03:41:42;8.06;;;8.06;;
2710;SDS011;20721;47.402;8.550;2023-08-12T03:43:43;8.07;;;8.07;;
2710;SDS011;20721;47.402;8.550;2023-08-12T03:45:43;8.15;;;8.15;;
2710;SDS011;20721;47.402;8.550;2023-08-12T03:47:42;7.57;;;7.57;;
2710;SDS011;20721;47.402;8.550;2023-08-12T03:49:42;9.08;;;9.08;;
2710;SDS011;20721;47.402;8.550;2023-08-12T03:51:42;8.26;;;8.26;;
2710;SDS011;20721;47.402;8.550;2023-08-12T03:53:42;8.15;;;8.15;;
2710;SDS011;20721;47.402;8.550;2023-08-12T03:57:42;8.76;;;8.76;;
2710;SDS011;20721;47.402;8.550;2023-08-12T03:59:42;8.23;;;8.23;;
2710;SDS011;20721;47.402;8.550;2023-08-12T04:01:42;8.41;;;8.41;;
2710;SDS011;20721;47.402;8.550;2023-08-12T04:04:42;8.79;;;8.79;;
2710;SDS011;20721;47.402;8.550;2023-08-12T04:06:42;8.11;;;8.11;;
2710;SDS011;20721;47.402;8.550;2023-08-12T04:09:42;8.16;;;8.16;;
2710;SDS011;20721;47.402;8.550;2023-08-12T04:11:42;9.70;;;9.70;;
2710;SDS011;20721;47.402;8.550;2023-08-12T04:14:42;8.45;;;8.45;;
2710;SDS011;20721;47.402;8.550;2023-08-12T04:16:42;7.97;;;7.97;;
2710;SDS011;20721;47.402;8.550;2023-08-12T04:18:42;8.45;;;8.45;;
2710;SDS011;20721;47.402;8.550;2023-08-12T04:20:42;8.48;;;8.48;;
2710;SDS011;20721;47.402;8.550;2023-08-12T04:26:42;9.12;;;9.12;;
2710;SDS011;20721;47.402;8.550;2023-08-12T04:28:42;9.10;;;9.10;;
2710;SDS011;20721;47.402;8.550;2023-08-12T04:30:43;8.94;;;8.94;;
2710;SDS011;20721;47.402;8.550;2023-08-12T04:32:42;7.60;;;7.60;;
2710;SDS011;20721;47.402;8.550;2023-08-12T04:34:42;8.95;;;8.95;;
2710;SDS011;20721;47.402;8.550;2023-08-12T04:36:42;7.96;;;7.96;;
2710;SDS011;20721;47.402;8.550;2023-08-12T04:38:42;9.00;;;9.00;;
2710;SDS011;20721;47.402;8.550;2023-08-12T04:40:42;7.51;;;7.51;;
2710;SDS011;20721;47.402;8.550;2023-08-12T04:42:43;7.79;;;7.79;;
2710;SDS011;20721;47.402;8.550;2023-08-12T04:44:42;8.21;;;8.21;;
2710;SDS011;20721;47.402;8.550;2023-08-12T04:47:42;8.36;;;8.36;;
2710;SDS011;20721;47.402;8.550;2023-08-12T04:50:44;7.84;;;7.84;;
2710;SDS011;20721;47.402;8.550;2023-08-12T04:52:42;8.54;;;8.54;;
2710;SDS011;20721;47.402;8.550;2023-08-12T04:54:42;8.48;;;8.48;;
2710;SDS011;20721;47.402;8.550;2023-08-12T04:56:42;9.12;;;9.12;;
2710;SDS011;20721;47.402;8.550;2023-08-12T04:58:42;8.56;;;8.56;;
2710;SDS011;20721;47.402;8.550;2023-08-12T05:00:42;8.57;;;8.57;;
2710;SDS011;20721;47.402;8.550;2023-08-12T05:02:43;8.02;;;8.02;;
2710;SDS011;20721;47.402;8.550;2023-08-12T05:04:42;7.84;;;7.84;;
2710;SDS011;20721;47.402;8.550;2023-08-12T05:06:42;8.20;;;8.20;;
2710;SDS011;20721;47.402;8.550;2023-08-12T05:08:42;8.37;;;8.37;;
2710;SDS011;20721;47.402;8.550;2023-08-12T05:10:42;9.11;;;9.11;;
2710;SDS011;20721;47.402;8.550;2023-08-12T05:12:43;8.48;;;8.48;;
2710;SDS011;20721;47.402;8.550;2023-08-12T05:14:42;8.98;;;8.98;;
2710;SDS011;20721;47.402;8.550;2023-08-12T05:16:42;8.30;;;8.30;;
2710;SDS011;20721;47.402;8.550;2023-08-12T05:18:42;9.26;;;9.26;;
2710;SDS011;20721;47.402;8.550;2023-08-12T05:20:42;9.24;;;9.24;;
2710;SDS011;20721;47.402;8.550;2023-08-12T05:22:42;8.34;;;8.34;;
2710;SDS011;20721;47.402;8.550;2023-08-12T05:25:42;8.04;;;8.04;;
2710;SDS011;20721;47.402;8.550;2023-08-12T05:28:42;8.42;;;8.42;;
2710;SDS011;20721;47.402;8.550;2023-08-12T05:30:42;8.16;;;8.16;;
2710;SDS011;20721;47.402;8.550;2023-08-12T05:32:42;9.07;;;9.07;;
2710;SDS011;20721;47.402;8.550;2023-08-12T05:34:42;8.44;;;8.44;;
2710;SDS011;20721;47.402;8.550;2023-08-12T05:36:42;8.40;;;8.40;;
2710;SDS011;20721;47.402;8.550;2023-08-12T05:38:42;8.04;;;8.04;;
2710;SDS011;20721;47.402;8.550;2023-08-12T05:40:42;8.50;;;8.50;;
2710;SDS011;20721;47.402;8.550;2023-08-12T05:42:42;8.91;;;8.91;;
2710;SDS011;20721;47.402;8.550;2023-08-12T05:44:42;8.51;;;8.51;;
2710;SDS011;20721;47.402;8.550;2023-08-12T05:46:43;9.31;;;9.31;;
2710;SDS011;20721;47.402;8.550;2023-08-12T05:48:42;9.37;;;9.37;;
2710;SDS011;20721;47.402;8.550;2023-08-12T05:50:43;8.78;;;8.78;;
2710;SDS011;20721;47.402;8.550;2023-08-12T05:52:43;8.95;;;8.95;;
2710;SDS011;20721;47.402;8.550;2023-08-12T05:54:42;8.85;;;8.85;;
2710;SDS011;20721;47.402;8.550;2023-08-12T05:56:42;8.33;;;8.33;;
2710;SDS011;20721;47.402;8.550;2023-08-12T05:58:42;9.42;;;9.42;;
2710;SDS011;20721;47.402;8.550;2023-08-12T06:00:42;8.23;;;8.23;;
2710;SDS011;20721;47.402;8.550;2023-08-12T06:02:43;8.76;;;8.76;;
2710;SDS011;20721;47.402;8.550;2023-08-12T06:04:42;9.65;;;9.65;;
2710;SDS011;20721;47.402;8.550;2023-08-12T06:06:42;9.94;;;9.94;;
2710;SDS011;20721;47.402;8.550;2023-08-12T06:08:42;9.60;;;9.60;;
2710;SDS011;20721;47.402;8.550;2023-08-12T06:10:43;9.62;;;9.62;;
2710;SDS011;20721;47.402;8.550;2023-08-12T06:15:43;10.30;;;10.30;;
2710;SDS011;20721;47.402;8.550;2023-08-12T06:17:43;9.62;;;9.62;;
2710;SDS011;20721;47.402;8.550;2023-08-12T06:19:43;9.08;;;9.08;;
2710;SDS011;20721;47.402;8.550;2023-08-12T06:21:43;9.20;;;9.20;;
2710;SDS011;20721;47.402;8.550;2023-08-12T06:23:43;9.80;;;9.80;;
2710;SDS011;20721;47.402;8.550;2023-08-12T06:25:43;9.33;;;9.33;;
2710;SDS011;20721;47.402;8.550;2023-08-12T06:27:43;9.27;;;9.27;;
2710;SDS011;20721;47.402;8.550;2023-08-12T06:29:43;9.08;;;9.08;;
2710;SDS011;20721;47.402;8.550;2023-08-12T06:31:43;9.16;;;9.16;;
2710;SDS011;20721;47.402;8.550;2023-08-12T06:33:43;11.71;;;11.71;;
2710;SDS011;20721;47.402;8.550;2023-08-12T06:35:43;10.04;;;10.04;;
2710;SDS011;20721;47.402;8.550;2023-08-12T06:37:43;9.57;;;9.57;;
2710;SDS011;20721;47.402;8.550;2023-08-12T06:39:43;9.16;;;9.16;;
2710;SDS011;20721;47.402;8.550;2023-08-12T06:41:43;10.44;;;10.44;;
2710;SDS011;20721;47.402;8.550;2023-08-12T06:43:43;10.66;;;10.66;;
2710;SDS011;20721;47.402;8.550;2023-08-12T06:45:43;9.74;;;9.74;;
2710;SDS011;20721;47.402;8.550;2023-08-12T06:47:43;9.42;;;9.42;;
2710;SDS011;20721;47.402;8.550;2023-08-12T06:49:43;8.96;;;8.96;;
2710;SDS011;20721;47.402;8.550;2023-08-12T06:51:43;8.93;;;8.93;;
2710;SDS011;20721;47.402;8.550;2023-08-12T06:53:43;9.38;;;9.38;;
2710;SDS011;20721;47.402;8.550;2023-08-12T06:55:43;9.60;;;9.60;;
2710;SDS011;20721;47.402;8.550;2023-08-12T06:57:43;8.99;;;8.99;;
2710;SDS011;20721;47.402;8.550;2023-08-12T06:59:43;8.84;;;8.84;;
2710;SDS011;20721;47.402;8.550;2023-08-12T07:01:43;8.38;;;8.38;;
2710;SDS011;20721;47.402;8.550;2023-08-12T07:03:43;8.25;;;8.25;;
2710;SDS011;20721;47.402;8.550;2023-08-12T07:05:43;8.20;;;8.20;;
2710;SDS011;20721;47.402;8.550;2023-08-12T07:07:43;9.43;;;9.43;;
2710;SDS011;20721;47.402;8.550;2023-08-12T07:09:43;9.14;;;9.14;;
2710;SDS011;20721;47.402;8.550;2023-08-12T07:11:43;8.82;;;8.82;;
2710;SDS011;20721;47.402;8.550;2023-08-12T07:13:43;9.36;;;9.36;;
2710;SDS011;20721;47.402;8.550;2023-08-12T07:15:43;9.63;;;9.63;;
2710;SDS011;20721;47.402;8.550;2023-08-12T07:17:43;8.81;;;8.81;;
2710;SDS011;20721;47.402;8.550;2023-08-12T07:19:43;8.26;;;8.26;;
2710;SDS011;20721;47.402;8.550;2023-08-12T07:21:43;10.30;;;10.30;;
2710;SDS011;20721;47.402;8.550;2023-08-12T07:23:43;8.59;;;8.59;;
2710;SDS011;20721;47.402;8.550;2023-08-12T07:25:45;8.39;;;8.39;;
2710;SDS011;20721;47.402;8.550;2023-08-12T07:27:43;8.47;;;8.47;;
2710;SDS011;20721;47.402;8.550;2023-08-12T07:31:43;9.32;;;9.32;;
2710;SDS011;20721;47.402;8.550;2023-08-12T07:33:43;8.63;;;8.63;;
2710;SDS011;20721;47.402;8.550;2023-08-12T07:35:43;7.58;;;7.58;;
2710;SDS011;20721;47.402;8.550;2023-08-12T07:37:43;8.24;;;8.24;;
2710;SDS011;20721;47.402;8.550;2023-08-12T07:39:43;7.89;;;7.89;;
2710;SDS011;20721;47.402;8.550;2023-08-12T07:41:43;8.08;;;8.08;;
2710;SDS011;20721;47.402;8.550;2023-08-12T07:43:43;8.35;;;8.35;;
2710;SDS011;20721;47.402;8.550;2023-08-12T07:45:43;7.95;;;7.95;;
2710;SDS011;20721;47.402;8.550;2023-08-12T07:47:43;7.85;;;7.85;;
2710;SDS011;20721;47.402;8.550;2023-08-12T07:49:43;7.29;;;7.29;;
2710;SDS011;20721;47.402;8.550;2023-08-12T07:54:43;8.55;;;8.55;;
2710;SDS011;20721;47.402;8.550;2023-08-12T07:56:43;8.05;;;8.05;;
2710;SDS011;20721;47.402;8.550;2023-08-12T07:58:43;8.16;;;8.16;;
2710;SDS011;20721;47.402;8.550;2023-08-12T08:00:43;7.57;;;7.57;;
2710;SDS011;20721;47.402;8.550;2023-08-12T08:03:43;7.59;;;7.59;;
2710;SDS011;20721;47.402;8.550;2023-08-12T08:05:43;8.28;;;8.28;;
2710;SDS011;20721;47.402;8.550;2023-08-12T08:07:43;7.15;;;7.15;;
2710;SDS011;20721;47.402;8.550;2023-08-12T08:09:43;8.47;;;8.47;;
2710;SDS011;20721;47.402;8.550;2023-08-12T08:11:44;7.51;;;7.51;;
2710;SDS011;20721;47.402;8.550;2023-08-12T08:13:43;8.39;;;8.39;;
2710;SDS011;20721;47.402;8.550;2023-08-12T08:15:43;8.67;;;8.67;;
2710;SDS011;20721;47.402;8.550;2023-08-12T08:17:49;7.80;;;7.80;;
2710;SDS011;20721;47.402;8.550;2023-08-12T08:19:43;8.02;;;8.02;;
2710;SDS011;20721;47.402;8.550;2023-08-12T08:21:43;7.22;;;7.22;;
2710;SDS011;20721;47.402;8.550;2023-08-12T08:23:43;9.54;;;9.54;;
2710;SDS011;20721;47.402;8.550;2023-08-12T08:25:43;9.03;;;9.03;;
2710;SDS011;20721;47.402;8.550;2023-08-12T08:27:43;7.38;;;7.38;;
2710;SDS011;20721;47.402;8.550;2023-08-12T08:29:43;6.94;;;6.94;;
2710;SDS011;20721;47.402;8.550;2023-08-12T08:31:43;6.03;;;6.03;;
2710;SDS011;20721;47.402;8.550;2023-08-12T08:33:43;6.52;;;6.52;;
2710;SDS011;20721;47.402;8.550;2023-08-12T08:35:43;6.78;;;6.78;;
2710;SDS011;20721;47.402;8.550;2023-08-12T08:37:43;6.74;;;6.74;;
2710;SDS011;20721;47.402;8.550;2023-08-12T08:39:43;6.94;;;6.94;;
2710;SDS011;20721;47.402;8.550;2023-08-12T08:41:47;5.50;;;5.50;;
2710;SDS011;20721;47.402;8.550;2023-08-12T08:43:45;6.91;;;6.91;;
2710;SDS011;20721;47.402;8.550;2023-08-12T08:45:44;6.87;;;6.87;;
2710;SDS011;20721;47.402;8.550;2023-08-12T08:47:43;7.73;;;7.73;;
2710;SDS011;20721;47.402;8.550;2023-08-12T08:49:44;6.99;;;6.99;;
2710;SDS011;20721;47.402;8.550;2023-08-12T08:51:44;7.20;;;7.20;;
2710;SDS011;20721;47.402;8.550;2023-08-12T08:53:47;7.37;;;7.37;;
2710;SDS011;20721;47.402;8.550;2023-08-12T08:55:43;6.97;;;6.97;;
2710;SDS011;20721;47.402;8.550;2023-08-12T08:57:55;6.66;;;6.66;;
2710;SDS011;20721;47.402;8.550;2023-08-12T08:59:43;7.62;;;7.62;;
2710;SDS011;20721;47.402;8.550;2023-08-12T09:01:45;7.45;;;7.45;;
2710;SDS011;20721;47.402;8.550;2023-08-12T09:03:45;7.18;;;7.18;;
2710;SDS011;20721;47.402;8.550;2023-08-12T09:05:44;7.71;;;7.71;;
2710;SDS011;20721;47.402;8.550;2023-08-12T09:07:43;7.39;;;7.39;;
2710;SDS011;20721;47.402;8.550;2023-08-12T09:09:45;8.33;;;8.33;;
2710;SDS011;20721;47.402;8.550;2023-08-12T09:11:43;7.50;;;7.50;;
2710;SDS011;20721;47.402;8.550;2023-08-12T09:13:43;8.25;;;8.25;;
2710;SDS011;20721;47.402;8.550;2023-08-12T09:15:44;10.01;;;10.01;;
2710;SDS011;20721;47.402;8.550;2023-08-12T09:17:43;9.56;;;9.56;;
2710;SDS011;20721;47.402;8.550;2023-08-12T09:19:43;9.09;;;9.09;;
2710;SDS011;20721;47.402;8.550;2023-08-12T09:21:43;7.93;;;7.93;;
2710;SDS011;20721;47.402;8.550;2023-08-12T09:23:47;7.55;;;7.55;;
2710;SDS011;20721;47.402;8.550;2023-08-12T09:25:45;7.32;;;7.32;;
2710;SDS011;20721;47.402;8.550;2023-08-12T09:27:45;7.88;;;7.88;;
2710;SDS011;20721;47.402;8.550;2023-08-12T09:29:44;8.06;;;8.06;;
2710;SDS011;20721;47.402;8.550;2023-08-12T09:31:43;8.13;;;8.13;;
2710;SDS011;20721;47.402;8.550;2023-08-12T09:33:48;8.18;;;8.18;;
2710;SDS011;20721;47.402;8.550;2023-08-12T09:35:49;9.67;;;9.67;;
2710;SDS011;20721;47.402;8.550;2023-08-12T09:37:43;8.23;;;8.23;;
2710;SDS011;20721;47.402;8.550;2023-08-12T09:39:43;8.05;;;8.05;;
2710;SDS011;20721;47.402;8.550;2023-08-12T09:41:47;7.76;;;7.76;;
2710;SDS011;20721;47.402;8.550;2023-08-12T09:43:44;7.86;;;7.86;;
2710;SDS011;20721;47.402;8.550;2023-08-12T09:45:44;7.48;;;7.48;;
2710;SDS011;20721;47.402;8.550;2023-08-12T09:47:43;7.73;;;7.73;;
2710;SDS011;20721;47.402;8.550;2023-08-12T09:49:43;8.24;;;8.24;;
2710;SDS011;20721;47.402;8.550;2023-08-12T09:53:44;8.44;;;8.44;;
2710;SDS011;20721;47.402;8.550;2023-08-12T09:55:46;7.55;;;7.55;;
2710;SDS011;20721;47.402;8.550;2023-08-12T09:57:47;7.67;;;7.67;;
2710;SDS011;20721;47.402;8.550;2023-08-12T09:59:44;7.72;;;7.72;;
2710;SDS011;20721;47.402;8.550;2023-08-12T10:01:43;8.29;;;8.29;;
2710;SDS011;20721;47.402;8.550;2023-08-12T10:03:44;7.92;;;7.92;;
2710;SDS011;20721;47.402;8.550;2023-08-12T10:05:44;7.44;;;7.44;;
2710;SDS011;20721;47.402;8.550;2023-08-12T10:08:46;8.10;;;8.10;;
2710;SDS011;20721;47.402;8.550;2023-08-12T10:10:45;7.72;;;7.72;;
2710;SDS011;20721;47.402;8.550;2023-08-12T10:12:44;7.02;;;7.02;;
2710;SDS011;20721;47.402;8.550;2023-08-12T10:14:43;6.46;;;6.46;;
2710;SDS011;20721;47.402;8.550;2023-08-12T10:16:45;7.64;;;7.64;;
2710;SDS011;20721;47.402;8.550;2023-08-12T10:18:44;7.39;;;7.39;;
2710;SDS011;20721;47.402;8.550;2023-08-12T10:20:45;8.19;;;8.19;;
2710;SDS011;20721;47.402;8.550;2023-08-12T10:22:44;6.60;;;6.60;;
2710;SDS011;20721;47.402;8.550;2023-08-12T10:24:43;8.06;;;8.06;;
2710;SDS011;20721;47.402;8.550;2023-08-12T10:26:43;7.80;;;7.80;;
2710;SDS011;20721;47.402;8.550;2023-08-12T10:29:45;6.83;;;6.83;;
2710;SDS011;20721;47.402;8.550;2023-08-12T10:31:43;6.76;;;6.76;;
2710;SDS011;20721;47.402;8.550;2023-08-12T10:33:45;5.97;;;5.97;;
2710;SDS011;20721;47.402;8.550;2023-08-12T10:35:59;6.91;;;6.91;;
2710;SDS011;20721;47.402;8.550;2023-08-12T10:37:45;5.55;;;5.55;;
2710;SDS011;20721;47.402;8.550;2023-08-12T10:39:44;5.04;;;5.04;;
2710;SDS011;20721;47.402;8.550;2023-08-12T10:41:49;5.14;;;5.14;;
2710;SDS011;20721;47.402;8.550;2023-08-12T10:43:59;4.85;;;4.85;;
2710;SDS011;20721;47.402;8.550;2023-08-12T10:45:52;5.43;;;5.43;;
2710;SDS011;20721;47.402;8.550;2023-08-12T10:48:09;5.07;;;5.07;;
2710;SDS011;20721;47.402;8.550;2023-08-12T10:49:48;4.77;;;4.77;;
2710;SDS011;20721;47.402;8.550;2023-08-12T10:52:00;5.05;;;5.05;;
2710;SDS011;20721;47.402;8.550;2023-08-12T10:53:48;5.22;;;5.22;;
2710;SDS011;20721;47.402;8.550;2023-08-12T10:55:47;5.23;;;5.23;;
2710;SDS011;20721;47.402;8.550;2023-08-12T10:57:45;4.53;;;4.53;;
2710;SDS011;20721;47.402;8.550;2023-08-12T11:00:00;4.56;;;4.56;;
2710;SDS011;20721;47.402;8.550;2023-08-12T11:01:43;4.76;;;4.76;;
2710;SDS011;20721;47.402;8.550;2023-08-12T11:03:47;4.84;;;4.84;;
2710;SDS011;20721;47.402;8.550;2023-08-12T11:05:47;5.41;;;5.41;;
2710;SDS011;20721;47.402;8.550;2023-08-12T11:08:00;5.30;;;5.30;;
2710;SDS011;20721;47.402;8.550;2023-08-12T11:09:44;5.43;;;5.43;;
2710;SDS011;20721;47.402;8.550;2023-08-12T11:11:43;6.54;;;6.54;;
2710;SDS011;20721;47.402;8.550;2023-08-12T11:13:56;6.59;;;6.59;;
2710;SDS011;20721;47.402;8.550;2023-08-12T11:15:44;6.17;;;6.17;;
2710;SDS011;20721;47.402;8.550;2023-08-12T11:17:46;6.97;;;6.97;;
2710;SDS011;20721;47.402;8.550;2023-08-12T11:19:44;6.09;;;6.09;;
2710;SDS011;20721;47.402;8.550;2023-08-12T11:21:45;6.74;;;6.74;;
2710;SDS011;20721;47.402;8.550;2023-08-12T11:23:44;6.18;;;6.18;;
2710;SDS011;20721;47.402;8.550;2023-08-12T11:25:44;6.88;;;6.88;;
2710;SDS011;20721;47.402;8.550;2023-08-12T11:27:46;6.57;;;6.57;;
2710;SDS011;20721;47.402;8.550;2023-08-12T11:29:43;6.19;;;6.19;;
2710;SDS011;20721;47.402;8.550;2023-08-12T11:31:44;7.08;;;7.08;;
2710;SDS011;20721;47.402;8.550;2023-08-12T11:33:43;6.11;;;6.11;;
2710;SDS011;20721;47.402;8.550;2023-08-12T11:35:44;6.86;;;6.86;;
2710;SDS011;20721;47.402;8.550;2023-08-12T11:37:46;6.50;;;6.50;;
2710;SDS011;20721;47.402;8.550;2023-08-12T11:39:43;6.78;;;6.78;;
2710;SDS011;20721;47.402;8.550;2023-08-12T11:41:44;7.98;;;7.98;;
2710;SDS011;20721;47.402;8.550;2023-08-12T11:43:43;6.76;;;6.76;;
2710;SDS011;20721;47.402;8.550;2023-08-12T11:45:43;7.21;;;7.21;;
2710;SDS011;20721;47.402;8.550;2023-08-12T11:47:44;6.61;;;6.61;;
2710;SDS011;20721;47.402;8.550;2023-08-12T11:49:43;6.44;;;6.44;;
2710;SDS011;20721;47.402;8.550;2023-08-12T11:51:44;6.72;;;6.72;;
2710;SDS011;20721;47.402;8.550;2023-08-12T11:53:44;6.85;;;6.85;;
2710;SDS011;20721;47.402;8.550;2023-08-12T11:55:44;6.60;;;6.60;;
2710;SDS011;20721;47.402;8.550;2023-08-12T11:57:44;6.03;;;6.03;;
2710;SDS011;20721;47.402;8.550;2023-08-12T11:59:44;6.46;;;6.46;;
2710;SDS011;20721;47.402;8.550;2023-08-12T12:01:48;7.71;;;7.71;;
2710;SDS011;20721;47.402;8.550;2023-08-12T12:03:44;8.55;;;8.55;;
2710;SDS011;20721;47.402;8.550;2023-08-12T12:05:45;7.77;;;7.77;;
2710;SDS011;20721;47.402;8.550;2023-08-12T12:07:44;9.11;;;9.11;;
2710;SDS011;20721;47.402;8.550;2023-08-12T12:09:43;7.80;;;7.80;;
2710;SDS011;20721;47.402;8.550;2023-08-12T12:11:44;7.31;;;7.31;;
2710;SDS011;20721;47.402;8.550;2023-08-12T12:13:45;6.73;;;6.73;;
2710;SDS011;20721;47.402;8.550;2023-08-12T12:15:52;6.40;;;6.40;;
2710;SDS011;20721;47.402;8.550;2023-08-12T12:17:48;5.46;;;5.46;;
2710;SDS011;20721;47.402;8.550;2023-08-12T12:19:43;4.92;;;4.92;;
2710;SDS011;20721;47.402;8.550;2023-08-12T12:21:52;5.91;;;5.91;;
2710;SDS011;20721;47.402;8.550;2023-08-12T12:23:47;5.85;;;5.85;;
2710;SDS011;20721;47.402;8.550;2023-08-12T12:25:43;5.36;;;5.36;;
2710;SDS011;20721;47.402;8.550;2023-08-12T12:27:44;5.40;;;5.40;;
2710;SDS011;20721;47.402;8.550;2023-08-12T12:29:44;4.93;;;4.93;;
2710;SDS011;20721;47.402;8.550;2023-08-12T12:31:45;5.56;;;5.56;;
2710;SDS011;20721;47.402;8.550;2023-08-12T12:33:43;4.61;;;4.61;;
2710;SDS011;20721;47.402;8.550;2023-08-12T12:35:54;5.01;;;5.01;;
2710;SDS011;20721;47.402;8.550;2023-08-12T12:37:44;5.02;;;5.02;;
2710;SDS011;20721;47.402;8.550;2023-08-12T12:39:44;4.64;;;4.64;;
2710;SDS011;20721;47.402;8.550;2023-08-12T12:41:44;4.31;;;4.31;;
2710;SDS011;20721;47.402;8.550;2023-08-12T12:43:44;4.02;;;4.02;;
2710;SDS011;20721;47.402;8.550;2023-08-12T12:45:44;5.06;;;5.06;;
2710;SDS011;20721;47.402;8.550;2023-08-12T12:47:44;4.52;;;4.52;;
2710;SDS011;20721;47.402;8.550;2023-08-12T12:49:44;4.97;;;4.97;;
2710;SDS011;20721;47.402;8.550;2023-08-12T12:51:44;5.25;;;5.25;;
2710;SDS011;20721;47.402;8.550;2023-08-12T12:53:44;4.80;;;4.80;;
2710;SDS011;20721;47.402;8.550;2023-08-12T12:55:44;4.31;;;4.31;;
2710;SDS011;20721;47.402;8.550;2023-08-12T12:57:44;4.70;;;4.70;;
2710;SDS011;20721;47.402;8.550;2023-08-12T12:59:44;3.79;;;3.79;;
2710;SDS011;20721;47.402;8.550;2023-08-12T13:01:44;4.31;;;4.31;;
2710;SDS011;20721;47.402;8.550;2023-08-12T13:03:46;4.44;;;4.44;;
2710;SDS011;20721;47.402;8.550;2023-08-12T13:05:44;4.55;;;4.55;;
2710;SDS011;20721;47.402;8.550;2023-08-12T13:07:44;4.36;;;4.36;;
2710;SDS011;20721;47.402;8.550;2023-08-12T13:09:44;3.94;;;3.94;;
2710;SDS011;20721;47.402;8.550;2023-08-12T13:11:45;4.28;;;4.28;;
2710;SDS011;20721;47.402;8.550;2023-08-12T13:14:44;4.80;;;4.80;;
2710;SDS011;20721;47.402;8.550;2023-08-12T13:16:44;4.83;;;4.83;;